Latest Weather Observations for Legendre Island

IDW60801

Issued at 2:14 pm WST Thursday 28 January 2021 (issued every 10 minutes, with the page automatically refreshed every 10 minutes)

About weather observations | Map of weather stations | Latest weather observations for WA | Other Formats
Station Details ID: 004095 Name: LEGENDRE ISLAND Lat: -20.36 Lon: 116.84 Height: 29.0 m
Data from the previous 72 hours. | See also: Recent months at Legendre Island
Date/Time
WST
Temp
°C
App
Temp
°C
Dew
Point
°C
Rel
Hum
%
Delta-T
°C
Wind Press
QNH
hPa
Press
MSL
hPa
Rain since
9am
mm
Dir  Spd
km/h
Gust
km/h
Spd
kts
Gust
kts
28/02:00pm 34.3 34.3 17.1 36 11.1 N 13 13 7 7 1000.4 1000.2 -
28/01:30pm 34.4 35.2 17.2 36 11.0 N 9 13 5 7 1000.7 1000.5 -
28/01:00pm 34.2 34.6 14.7 31 12.1 NNE 6 7 3 4 1000.9 1000.7 -
28/12:30pm 34.5 35.0 14.9 31 12.2 NE 6 7 3 4 1001.0 1000.8 -
28/12:00pm 34.6 34.5 13.4 28 12.9 ENE 6 7 3 4 1001.3 1001.1 -
28/11:30am 35.4 35.8 15.2 30 12.6 ENE 7 9 4 5 1001.5 1001.3 -
28/11:00am 35.4 35.6 15.7 31 12.5 E 9 17 5 9 1001.6 1001.4 -
28/10:30am 34.2 34.3 17.4 36 10.8 SSW 13 17 7 9 1001.7 1001.5 -
28/10:00am 32.6 34.2 20.8 49 7.9 SW 13 17 7 9 1001.8 1001.6 -
28/09:30am 31.8 32.8 21.0 52 7.2 SW 17 19 9 10 1001.9 1001.7 -
28/09:00am 31.2 31.8 20.2 52 7.3 SW 17 19 9 10 1001.9 1001.7 -
28/08:30am 30.7 31.1 20.6 54 6.7 SW 19 20 10 11 1001.8 1001.6 -
28/08:00am 30.5 30.8 20.4 54 6.7 SW 19 20 10 11 1001.7 1001.5 -
28/07:30am 30.1 30.4 20.4 56 6.4 SW 19 22 10 12 1001.5 1001.3 -
28/07:00am 29.6 29.9 20.7 58 5.9 SW 20 24 11 13 1001.4 1001.2 -
28/06:30am 29.0 28.9 20.7 61 5.5 WSW 22 26 12 14 1001.2 1001.0 -
28/06:00am 28.8 28.0 20.8 62 5.3 WSW 26 28 14 15 1000.7 1000.5 -
28/05:30am 28.6 28.1 21.4 65 4.8 WSW 26 30 14 16 1000.4 1000.2 -
28/05:00am 28.1 29.8 24.7 82 2.4 W 24 28 13 15 1000.5 1000.3 -
28/04:30am 27.8 29.2 24.8 84 2.1 WSW 26 32 14 17 1000.3 1000.1 -
28/04:00am 27.7 27.8 24.5 83 2.2 WSW 32 37 17 20 1000.3 1000.1 -
28/03:30am 27.9 27.3 24.3 81 2.5 WSW 35 43 19 23 1000.4 1000.2 -
28/03:00am 27.7 27.1 24.3 82 2.4 W 35 41 19 22 1000.3 1000.1 -
28/02:30am 27.9 26.8 24.1 80 2.6 WSW 37 44 20 24 1000.3 1000.1 -
28/02:00am 28.1 26.6 24.1 79 2.8 W 39 44 21 24 1000.4 1000.2 -
28/01:30am 28.4 27.2 24.0 77 3.0 WSW 37 44 20 24 1000.6 1000.4 -
28/01:00am 28.8 26.3 23.0 71 4.0 WSW 41 48 22 26 1000.7 1000.5 -
28/12:30am 29.3 26.0 21.5 63 5.2 WSW 41 50 22 27 1001.1 1000.9 -
28/12:00am 29.3 26.7 21.5 63 5.3 WSW 37 44 20 24 1001.1 1000.9 -
 
Date/Time
WST
Temp
°C
App
Temp
°C
Dew
Point
°C
Rel
Hum
%
Delta-T
°C
Wind Press
QNH
hPa
Press
MSL
hPa
Rain since
9am
mm
Dir  Spd
km/h
Gust
km/h
Spd
kts
Gust
kts
27/11:30pm 29.5 26.8 21.2 61 5.5 WSW 37 46 20 25 1001.3 1001.1 -
27/11:00pm 29.2 27.9 22.4 66 4.6 WSW 33 41 18 22 1001.5 1001.3 -
27/10:30pm 28.9 28.1 23.3 72 3.8 WSW 33 41 18 22 1001.7 1001.5 -
27/10:00pm 28.8 28.1 23.5 73 3.7 WSW 33 39 18 21 1001.8 1001.6 -
27/09:30pm 28.9 27.9 23.6 73 3.7 WSW 35 43 19 23 1001.7 1001.5 -
27/09:00pm 29.0 27.6 23.7 73 3.7 WSW 37 43 20 23 1001.4 1001.2 -
27/08:30pm 29.2 28.3 23.9 73 3.7 WSW 35 44 19 24 1001.3 1001.1 -
27/08:00pm 29.4 28.3 23.4 70 4.1 WSW 35 43 19 23 1001.0 1000.8 -
27/07:30pm 29.8 28.7 22.8 66 4.8 WSW 33 43 18 23 1000.7 1000.5 -
27/07:00pm 30.2 29.6 22.6 63 5.2 W 30 35 16 19 1000.5 1000.3 -
27/06:30pm 30.6 29.4 22.2 61 5.7 W 32 37 17 20 1000.2 1000.0 -
27/06:00pm 31.3 30.5 22.3 58 6.2 W 30 35 16 19 1000.0 999.8 -
27/05:30pm 31.6 31.7 24.0 64 5.3 W 30 35 16 19 999.8 999.6 -
27/05:00pm 31.8 31.5 23.3 60 5.9 W 30 35 16 19 999.6 999.4 -
27/04:30pm 32.2 32.4 23.4 59 6.1 W 28 33 15 18 999.7 999.5 -
27/04:00pm 32.9 33.5 24.1 60 6.2 W 28 35 15 19 999.9 999.7 -
27/03:30pm 32.7 32.4 23.3 57 6.5 W 30 35 16 19 1000.1 999.9 -
27/03:00pm 33.1 32.9 23.4 56 6.8 W 30 33 16 18 1000.5 1000.3 -
27/02:30pm 32.9 32.8 23.5 57 6.5 W 30 33 16 18 1000.7 1000.5 -
27/02:00pm 32.6 32.3 23.3 58 6.5 W 30 33 16 18 1000.9 1000.7 -
27/01:30pm 32.5 31.9 22.6 56 6.8 W 30 33 16 18 1001.2 1001.0 -
27/01:00pm 32.4 31.8 21.9 54 7.2 W 28 32 15 17 1001.4 1001.2 -
27/12:30pm 32.9 33.1 22.0 52 7.4 W 24 30 13 16 1001.7 1001.5 -
27/12:00pm 33.1 33.3 21.3 50 8.0 W 22 26 12 14 1001.9 1001.7 -
27/11:30am 32.9 33.4 21.1 50 7.9 W 20 24 11 13 1002.1 1001.9 -
27/11:00am 33.0 32.6 17.2 39 10.1 WSW 15 20 8 11 1002.2 1002.0 -
27/10:30am 32.3 32.2 18.8 44 8.8 SW 17 20 9 11 1002.5 1002.3 -
27/10:00am 31.3 30.0 16.9 42 9.1 SW 19 20 10 11 1002.5 1002.3 -
27/09:30am 31.6 30.0 17.5 43 9.0 SW 22 26 12 14 1002.3 1002.1 -
27/09:00am 30.7 28.2 17.0 43 8.7 SSW 26 30 14 16 1002.1 1001.9 -
27/08:30am 30.3 27.8 17.0 44 8.4 SSW 26 32 14 17 1001.9 1001.7 -
27/08:00am 29.9 27.3 17.7 48 7.8 SSW 28 33 15 18 1001.7 1001.5 -
27/07:30am 29.3 25.9 16.8 47 7.8 SW 30 35 16 19 1001.6 1001.4 -
27/07:00am 28.8 26.0 17.3 49 7.3 SSW 28 33 15 18 1001.5 1001.3 -
27/06:30am 28.4 25.1 17.0 50 7.2 SW 30 35 16 19 1001.3 1001.1 -
27/06:00am 28.2 24.4 16.8 50 7.2 SW 32 37 17 20 1001.0 1000.8 -
27/05:30am 28.4 23.8 16.0 47 7.7 SW 35 41 19 22 1000.6 1000.4 -
27/05:00am 28.5 24.4 16.4 48 7.6 SW 33 39 18 21 1000.5 1000.3 -
27/04:30am 28.8 24.9 17.0 49 7.4 SW 33 41 18 22 1000.3 1000.1 -
27/04:00am 29.0 24.4 16.2 46 8.0 SW 35 43 19 23 1000.3 1000.1 -
27/03:30am 29.1 25.2 17.9 50 7.1 SW 35 43 19 23 1000.3 1000.1 -
27/03:00am 29.1 25.1 18.5 52 6.8 SW 37 46 20 25 1000.2 1000.0 -
27/02:30am 29.1 26.2 20.0 58 6.0 SW 35 43 19 23 1000.5 1000.3 -
27/02:00am 29.1 26.8 21.3 62 5.2 SW 35 43 19 23 1000.6 1000.4 -
27/01:30am 28.8 27.8 23.0 71 4.0 WSW 33 43 18 23 1000.6 1000.4 -
27/01:00am 28.5 28.0 23.9 76 3.2 WSW 33 39 18 21 1001.0 1000.8 -
27/12:30am 28.7 27.1 24.0 76 3.3 WSW 39 46 21 25 1001.1 1000.9 -
27/12:00am 28.8 27.3 24.1 76 3.3 WSW 39 48 21 26 1001.5 1001.3 -
 
Date/Time
WST
Temp
°C
App
Temp
°C
Dew
Point
°C
Rel
Hum
%
Delta-T
°C
Wind Press
QNH
hPa
Press
MSL
hPa
Rain since
9am
mm
Dir  Spd
km/h
Gust
km/h
Spd
kts
Gust
kts
26/11:30pm 28.9 27.7 24.0 75 3.4 WSW 37 46 20 25 1001.7 1001.5 -
26/11:00pm 28.8 26.6 23.5 73 3.7 WSW 41 52 22 28 1001.9 1001.7 -
26/10:30pm 29.0 27.0 23.2 71 4.0 WSW 39 48 21 26 1002.0 1001.8 -
26/10:00pm 29.1 27.1 22.6 68 4.4 WSW 37 46 20 25 1002.0 1001.8 -
26/09:30pm 29.0 27.2 23.0 70 4.1 WSW 37 44 20 24 1001.8 1001.6 -
26/09:00pm 29.0 27.1 22.7 69 4.3 WSW 37 44 20 24 1001.7 1001.5 -
26/08:30pm 28.9 26.7 22.9 70 4.1 WSW 39 46 21 25 1001.7 1001.5 -
26/08:00pm 29.0 27.1 22.7 69 4.3 WSW 37 44 20 24 1001.5 1001.3 -
26/07:30pm 29.5 26.4 21.2 61 5.5 W 39 46 21 25 1001.2 1001.0 -
26/07:00pm 29.8 27.0 21.7 61 5.5 W 39 48 21 26 1000.9 1000.7 -
26/06:30pm 30.1 28.4 21.7 60 5.7 W 33 43 18 23 1000.6 1000.4 -
26/06:00pm 30.9 28.7 21.4 57 6.4 W 35 43 19 23 1000.5 1000.3 -
26/05:30pm 31.3 28.8 20.9 54 7.0 W 35 44 19 24 1000.3 1000.1 -
26/05:00pm 31.3 28.5 21.8 57 6.5 W 39 46 21 25 1000.3 1000.1 -
26/04:30pm 31.4 29.2 22.1 57 6.3 W 37 44 20 24 1000.5 1000.3 -
26/04:00pm 31.9 30.4 23.4 60 5.9 W 37 43 20 23 1000.6 1000.4 -
26/03:30pm 31.9 30.4 23.4 60 5.9 W 37 43 20 23 1000.8 1000.6 -
26/03:00pm 32.1 30.9 23.3 59 6.1 W 35 41 19 22 1001.1 1000.9 -
26/02:30pm 31.9 30.8 23.4 60 5.9 W 35 41 19 22 1001.3 1001.1 -
26/02:00pm 31.5 30.4 22.8 60 6.0 W 33 39 18 21 1001.6 1001.4 -
26/01:30pm 32.2 30.7 22.0 55 6.9 W 33 39 18 21 1002.1 1001.9 -
26/01:00pm 32.4 30.6 21.6 53 7.3 W 33 39 18 21 1002.6 1002.4 -
26/12:30pm 32.4 31.2 21.6 53 7.3 W 30 35 16 19 1002.8 1002.6 -
26/12:00pm 32.1 31.0 21.0 52 7.5 WSW 28 33 15 18 1003.0 1002.8 -
26/11:30am 31.7 29.8 20.9 52 7.2 WSW 32 39 17 21 1003.3 1003.1 -
26/11:00am 31.6 30.8 20.8 52 7.2 WSW 26 30 14 16 1003.5 1003.3 -
26/10:30am 31.5 30.3 19.2 48 8.0 WSW 24 28 13 15 1003.6 1003.4 -
26/10:00am 31.4 29.8 19.1 48 8.1 SW 26 30 14 16 1003.7 1003.5 -
26/09:30am 30.6 28.1 18.0 47 8.1 SW 28 32 15 17 1003.7 1003.5 -
26/09:00am 30.0 28.0 18.4 49 7.5 SW 26 32 14 17 1003.6 1003.4 -
26/08:30am 29.7 27.9 17.8 48 7.6 SW 24 28 13 15 1003.8 1003.6 -
26/08:00am 29.2 26.8 18.3 51 7.0 SW 28 33 15 18 1003.7 1003.5 -
26/07:30am 28.7 26.8 18.5 54 6.5 SW 26 30 14 16 1003.5 1003.3 -
26/07:00am 28.1 25.5 17.9 54 6.5 SW 28 33 15 18 1003.3 1003.1 -
26/06:30am 27.6 24.8 18.3 57 5.9 SW 30 37 16 20 1002.9 1002.7 -
26/06:00am 27.3 23.9 18.9 60 5.4 SW 35 43 19 23 1002.5 1002.3 -
26/05:30am 27.4 23.3 19.2 61 5.3 SW 39 46 21 25 1002.2 1002.0 -
26/05:00am 27.4 23.0 19.2 61 5.3 SW 41 46 22 25 1001.8 1001.6 -
26/04:30am 27.5 23.2 19.6 62 5.1 SW 41 48 22 26 1001.6 1001.4 -
26/04:00am 27.7 23.5 19.8 62 5.2 SW 41 46 22 25 1001.7 1001.5 -
26/03:30am 27.9 24.5 20.7 65 4.8 SW 39 46 21 25 1001.9 1001.7 -
26/03:00am 28.3 24.9 21.3 65 4.7 SW 41 48 22 26 1001.8 1001.6 -
26/02:30am 28.4 24.9 22.2 69 4.2 SW 44 54 24 29 1001.9 1001.7 -
26/02:00am 28.4 25.9 23.1 73 3.6 SW 41 50 22 27 1002.2 1002.0 -
26/01:30am 28.5 25.9 23.9 76 3.2 WSW 44 54 24 29 1002.6 1002.4 -
26/01:00am 28.6 25.7 23.9 75 3.3 WSW 46 57 25 31 1002.9 1002.7 -
26/12:30am 28.4 26.4 24.8 81 2.5 WSW 44 54 24 29 1003.2 1003.0 -
26/12:00am 28.4 25.9 24.0 77 3.1 WSW 44 54 24 29 1003.4 1003.2 -
 
Date/Time
WST
Temp
°C
App
Temp
°C
Dew
Point
°C
Rel
Hum
%
Delta-T
°C
Wind Press
QNH
hPa
Press
MSL
hPa
Rain since
9am
mm
Dir  Spd
km/h
Gust
km/h
Spd
kts
Gust
kts
25/11:30pm 28.5 26.5 24.5 79 2.8 WSW 43 50 23 27 1003.8 1003.6 -
25/11:00pm 28.4 26.2 24.2 78 2.9 WSW 43 50 23 27 1004.1 1003.9 -
25/10:30pm 28.5 25.3 23.4 74 3.5 WSW 46 52 25 28 1004.3 1004.1 -
25/10:00pm 28.4 25.6 23.1 73 3.6 WSW 43 52 23 28 1004.4 1004.2 -
25/09:30pm 28.5 25.6 23.0 72 3.8 WSW 43 52 23 28 1004.3 1004.1 -
25/09:00pm 28.4 25.8 22.9 72 3.8 W 41 48 22 26 1004.0 1003.8 -
25/08:30pm 28.5 25.0 22.3 69 4.2 WSW 44 52 24 28 1003.8 1003.6 -
25/08:00pm 28.6 25.9 22.6 70 4.1 WSW 41 52 22 28 1003.5 1003.3 -
25/07:30pm 28.7 25.3 22.0 67 4.5 WSW 43 50 23 27 1003.2 1003.0 -
25/07:00pm 28.6 25.2 22.1 68 4.4 W 43 52 23 28 1003.0 1002.8 -
25/06:30pm 29.3 26.1 22.8 68 4.4 WSW 44 56 24 30 1002.8 1002.6 -
25/06:00pm 29.6 26.7 22.3 65 5.0 W 41 50 22 27 1002.7 1002.5 -
25/05:30pm 29.9 26.8 22.9 66 4.8 W 44 50 24 27 1002.6 1002.4 -
25/05:00pm 30.9 27.4 21.1 56 6.6 W 41 46 22 25 1002.5 1002.3 -
25/04:30pm 30.5 26.8 21.6 59 6.0 W 43 48 23 26 1002.4 1002.2 -
25/04:00pm 31.8 27.7 19.1 47 8.3 W 39 46 21 25 1002.4 1002.2 -
25/03:30pm 31.8 28.7 20.4 51 7.6 W 37 43 20 23 1002.6 1002.4 -
25/03:00pm 31.9 29.8 21.7 54 6.9 W 35 43 19 23 1002.8 1002.6 -
25/02:30pm 31.8 29.7 21.0 52 7.2 W 33 39 18 21 1003.2 1003.0 -

Other formats

Comma delimited format used in spreadsheet applications
http://www.bom.gov.au/fwo/IDW60801/IDW60801.94307.axf

JavaScript Object Notation format (JSON) in row-major order
http://www.bom.gov.au/fwo/IDW60801/IDW60801.94307.json

Data quality

Most of these data are generated automatically and are frequently updated. Quality checks on data are not normally performed. It is possible for incorrect values to appear. Refer to information at About Latest Weather Observations and please check the disclaimer before using these data.